Time;durP1;ratioP1;P1;durP2;ratioP2;P2;SDS_P1;SDS_P2;PMS_P1;PMS_P2;Temp;Humidity;BMP_temperature;BMP_pressure;BME280_temperature;BME280_humidity;BME280_pressure;Samples;Min_cycle;Max_cycle;Signal;HPM_P1;HPM_P2
2022/02/21 00:00:20;;;;;;;3.10;0.32;;;;;;;7.20;100.00;94500.16;5033309;28;20025;-65
2022/02/21 00:02:49;;;;;;;1.35;0.52;;;;;;;7.21;100.00;94499.09;5038863;28;20025;-66
2022/02/21 00:05:21;;;;;;;0.93;0.40;;;;;;;7.20;100.00;94481.50;5052782;28;20531;-65
2022/02/21 00:07:47;;;;;;;1.40;0.50;;;;;;;7.25;100.00;94486.06;5035111;28;20028;-65
2022/02/21 00:10:13;;;;;;;1.52;0.60;;;;;;;7.30;100.00;94486.09;5052928;28;20017;-66
2022/02/21 00:12:39;;;;;;;1.65;0.50;;;;;;;7.32;100.00;94478.66;5052980;28;20052;-66
2022/02/21 00:15:05;;;;;;;2.15;0.50;;;;;;;7.34;100.00;94471.19;5034833;28;20029;-66
2022/02/21 00:17:40;;;;;;;2.13;0.50;;;;;;;7.35;100.00;94472.78;5034786;28;20021;-66
2022/02/21 00:20:06;;;;;;;0.75;0.50;;;;;;;7.34;100.00;94470.38;5052719;28;20021;-66
2022/02/21 00:22:34;;;;;;;1.67;0.70;;;;;;;7.40;100.00;94480.03;5043540;28;20056;-65
2022/02/21 00:24:59;;;;;;;0.90;0.60;;;;;;;7.42;100.00;94470.69;5035809;28;20124;-66
2022/02/21 00:27:28;;;;;;;3.22;0.52;;;;;;;7.42;100.00;94456.56;5031547;28;20061;-66
2022/02/21 00:29:55;;;;;;;1.95;0.40;;;;;;;7.40;100.00;94462.16;5031245;28;20025;-65
2022/02/21 00:32:21;;;;;;;2.35;0.60;;;;;;;7.40;100.00;94451.50;5032716;28;20048;-66
2022/02/21 00:34:46;;;;;;;1.73;0.50;;;;;;;7.38;100.00;94435.00;5031225;28;20033;-66
2022/02/21 00:37:11;;;;;;;0.73;0.55;;;;;;;7.34;100.00;94444.53;5032437;28;20045;-66
2022/02/21 00:39:37;;;;;;;2.17;0.80;;;;;;;7.31;100.00;94439.75;5032590;28;20030;-67
2022/02/21 00:42:04;;;;;;;1.15;0.65;;;;;;;7.29;100.00;94427.75;5032599;28;20025;-66
2022/02/21 00:44:29;;;;;;;1.60;0.80;;;;;;;7.23;100.00;94410.94;5031092;28;20116;-66
2022/02/21 00:46:56;;;;;;;1.27;0.55;;;;;;;7.20;100.00;94398.94;5031309;28;20116;-66
2022/02/21 00:49:21;;;;;;;1.30;0.45;;;;;;;7.16;100.00;94400.53;5032307;28;20037;-66
2022/02/21 00:51:47;;;;;;;2.28;0.40;;;;;;;7.18;100.00;94386.97;5032740;28;20025;-66
2022/02/21 00:54:12;;;;;;;2.28;0.57;;;;;;;7.12;100.00;94386.13;5031113;28;20025;-65
2022/02/21 00:56:37;;;;;;;1.23;0.43;;;;;;;7.15;100.00;94379.47;5031359;28;20033;-67
2022/02/21 00:59:03;;;;;;;1.15;0.50;;;;;;;7.14;100.00;94351.22;5032189;28;20030;-66
2022/02/21 01:01:28;;;;;;;0.85;0.50;;;;;;;7.14;100.00;94356.56;5032363;28;20112;-66
2022/02/21 01:04:00;;;;;;;0.98;0.60;;;;;;;7.15;100.00;94356.31;5032392;28;20469;-66
2022/02/21 01:06:25;;;;;;;4.13;0.45;;;;;;;7.19;100.00;94356.59;5032212;28;20018;-66
2022/02/21 01:08:50;;;;;;;2.65;0.50;;;;;;;7.22;100.00;94332.09;5032245;28;20400;-66
2022/02/21 01:11:28;;;;;;;1.05;0.55;;;;;;;7.22;100.00;94332.91;5032204;28;20025;-66
2022/02/21 01:14:02;;;;;;;1.50;0.47;;;;;;;7.21;100.00;94312.66;5034388;28;20033;-66
2022/02/21 01:16:31;;;;;;;1.67;0.63;;;;;;;7.23;100.00;94318.50;5034973;28;20366;-66
2022/02/21 01:18:57;;;;;;;0.40;0.40;;;;;;;7.28;100.00;94323.06;5042678;28;20095;-66
2022/02/21 01:21:22;;;;;;;0.73;0.45;;;;;;;7.33;100.00;94315.06;5038264;28;20021;-67
2022/02/21 01:23:48;;;;;;;1.00;0.50;;;;;;;7.34;100.00;94305.22;5036413;28;20075;-66
2022/02/21 01:26:13;;;;;;;0.50;0.40;;;;;;;7.36;100.00;94298.56;5049147;28;20047;-67
2022/02/21 01:28:51;;;;;;;1.67;0.50;;;;;;;7.41;100.00;94290.59;5036529;28;20104;-66
2022/02/21 01:31:17;;;;;;;1.15;0.68;;;;;;;7.52;100.00;94286.88;5036367;28;20519;-66
2022/02/21 01:33:48;;;;;;;0.30;0.30;;;;;;;7.62;100.00;94290.63;5036058;28;20057;-66
2022/02/21 01:36:13;;;;;;;1.13;0.45;;;;;;;7.68;100.00;94281.53;5035534;28;20133;-66
2022/02/21 01:38:39;;;;;;;1.42;0.45;;;;;;;7.73;100.00;94282.38;5034850;28;20446;-66
2022/02/21 01:41:04;;;;;;;0.95;0.50;;;;;;;7.84;100.00;94275.16;5034509;28;20388;-66
2022/02/21 01:43:30;;;;;;;2.40;0.63;;;;;;;7.92;100.00;94279.94;5034579;28;20083;-66
2022/02/21 01:45:59;;;;;;;1.00;0.40;;;;;;;7.97;100.00;94281.81;5034599;28;20021;-66
2022/02/21 01:48:27;;;;;;;3.33;0.60;;;;;;;7.99;100.00;94285.81;5035685;28;20108;-66
2022/02/21 01:50:53;;;;;;;1.20;0.50;;;;;;;8.01;100.00;94291.66;5035574;28;20060;-66
2022/02/21 01:53:19;;;;;;;2.10;0.70;;;;;;;8.08;100.00;94281.53;5035568;28;20048;-66
2022/02/21 01:55:44;;;;;;;1.27;0.55;;;;;;;8.09;100.00;94309.81;5035457;28;20025;-66
2022/02/21 01:58:16;;;;;;;1.17;0.50;;;;;;;8.14;100.00;94301.03;5034557;28;20072;-66
2022/02/21 02:00:41;;;;;;;1.80;0.50;;;;;;;8.19;100.00;94285.00;5035793;28;20030;-66
2022/02/21 02:03:06;;;;;;;0.55;0.50;;;;;;;8.18;100.00;94291.41;5034506;28;20078;-66
2022/02/21 02:05:35;;;;;;;1.02;0.60;;;;;;;8.25;100.00;94304.44;5035326;28;20022;-66
2022/02/21 02:08:05;;;;;;;0.70;0.70;;;;;;;8.28;100.00;94303.94;5035446;28;20021;-66
2022/02/21 02:10:37;;;;;;;1.98;0.52;;;;;;;8.33;100.00;94306.56;5035452;28;20392;-66
2022/02/21 02:13:02;;;;;;;2.67;0.50;;;;;;;8.30;100.00;94280.44;5035476;28;20063;-66
2022/02/21 02:15:28;;;;;;;1.13;0.60;;;;;;;8.14;100.00;94269.81;5035363;28;20480;-66
2022/02/21 02:17:53;;;;;;;1.05;0.50;;;;;;;8.00;100.00;94241.28;5035357;28;20030;-66
2022/02/21 02:20:19;;;;;;;2.08;0.77;;;;;;;7.93;100.00;94243.44;5052720;28;20017;-66
2022/02/21 02:22:45;;;;;;;0.52;0.43;;;;;;;7.89;100.00;94223.69;5033974;28;20035;-66
2022/02/21 02:25:13;;;;;;;4.45;0.80;;;;;;;7.80;100.00;94186.09;5035946;28;20017;-66
2022/02/21 02:27:41;;;;;;;3.00;0.57;;;;;;;7.81;100.00;94199.19;5043921;28;20025;-66
2022/02/21 02:30:06;;;;;;;2.25;0.60;;;;;;;7.70;100.00;94176.25;5035101;28;20064;-66
2022/02/21 02:32:38;;;;;;;1.35;0.63;;;;;;;7.60;100.00;94141.66;5033766;28;20049;-66
2022/02/21 02:35:05;;;;;;;3.33;0.70;;;;;;;7.55;100.00;94162.97;5034870;28;20067;-66
2022/02/21 02:37:33;;;;;;;3.05;0.57;;;;;;;7.49;100.00;94142.72;5034725;28;20046;-66
2022/02/21 02:39:59;;;;;;;1.48;0.65;;;;;;;7.52;100.00;94128.88;5033411;28;20083;-66
2022/02/21 02:42:25;;;;;;;1.65;0.65;;;;;;;7.49;100.00;94148.06;5034727;28;20095;-66
2022/02/21 02:44:50;;;;;;;1.77;0.60;;;;;;;7.38;100.00;94130.47;5034538;28;20026;-66
2022/02/21 02:47:16;;;;;;;3.70;0.50;;;;;;;7.31;100.00;94133.41;5034585;28;20041;-66
2022/02/21 02:49:42;;;;;;;1.20;0.50;;;;;;;7.20;100.00;94119.28;5033095;28;20460;-66
2022/02/21 02:52:11;;;;;;;0.68;0.60;;;;;;;7.11;100.00;94112.91;5034594;28;20036;-66
2022/02/21 02:54:39;;;;;;;2.13;0.60;;;;;;;7.12;100.00;94089.75;5034485;28;20472;-66
2022/02/21 02:57:05;;;;;;;1.65;0.63;;;;;;;7.08;100.00;94107.31;5034395;28;20025;-66
2022/02/21 02:59:40;;;;;;;1.80;0.60;;;;;;;7.07;100.00;94103.06;5034336;28;20480;-66
2022/02/21 03:02:06;;;;;;;1.35;0.70;;;;;;;6.97;100.00;94091.34;5032846;28;20057;-67
2022/02/21 03:04:31;;;;;;;2.08;0.47;;;;;;;6.80;100.00;94084.66;5034753;28;20064;-67
2022/02/21 03:06:58;;;;;;;2.60;0.60;;;;;;;6.67;100.00;94070.84;5036322;28;20037;-66
2022/02/21 03:09:27;;;;;;;1.10;0.60;;;;;;;6.54;100.00;94070.56;5034265;28;20022;-66
2022/02/21 03:11:53;;;;;;;2.60;0.82;;;;;;;6.52;100.00;94092.09;5032962;28;20524;-66
2022/02/21 03:14:22;;;;;;;3.78;0.70;;;;;;;6.52;100.00;94092.09;5033022;28;20408;-66
2022/02/21 03:16:48;;;;;;;1.85;0.50;;;;;;;6.52;100.00;94068.16;5032839;28;20025;-67
2022/02/21 03:19:13;;;;;;;1.17;0.57;;;;;;;6.52;100.00;94073.47;5036047;28;20407;-66
2022/02/21 03:21:39;;;;;;;2.00;0.80;;;;;;;6.52;100.00;94062.84;5053881;28;20495;-66
2022/02/21 03:24:04;;;;;;;1.15;0.60;;;;;;;6.46;100.00;94081.72;5045266;28;20057;-66
2022/02/21 03:26:35;;;;;;;1.88;0.68;;;;;;;6.39;100.00;94080.09;5049725;28;20024;-66
2022/02/21 03:29:01;;;;;;;2.90;0.70;;;;;;;6.41;100.00;94081.72;5032533;28;20037;-66
2022/02/21 03:31:26;;;;;;;2.05;0.73;;;;;;;6.43;100.00;94072.41;5033668;28;20034;-66
2022/02/21 03:33:52;;;;;;;1.10;0.52;;;;;;;6.40;100.00;94059.59;5033815;28;20097;-66
2022/02/21 03:36:17;;;;;;;2.28;0.90;;;;;;;6.39;100.00;94050.84;5033261;28;20041;-67
2022/02/21 03:38:45;;;;;;;1.60;0.63;;;;;;;6.38;100.00;94035.13;5033812;28;20032;-67
2022/02/21 03:41:11;;;;;;;3.85;0.80;;;;;;;6.42;100.00;94028.25;5032305;28;20022;-67
2022/02/21 03:43:37;;;;;;;2.60;0.75;;;;;;;6.42;100.00;94033.56;5033627;28;20029;-66
2022/02/21 03:46:14;;;;;;;3.42;0.70;;;;;;;6.43;100.00;94047.66;5033252;28;20076;-66
2022/02/21 03:48:40;;;;;;;2.03;0.80;;;;;;;6.44;100.00;94041.28;5032408;28;20029;-66
2022/02/21 03:51:08;;;;;;;5.15;0.60;;;;;;;6.42;100.00;94035.44;5032167;28;20032;-67
2022/02/21 03:53:37;;;;;;;3.50;1.00;;;;;;;6.36;100.00;94029.28;5033439;28;20029;-66
2022/02/21 03:56:07;;;;;;;6.50;1.23;;;;;;;6.31;100.00;94024.78;5031970;28;20476;-66
2022/02/21 03:58:33;;;;;;;1.63;0.57;;;;;;;6.33;100.00;93997.91;5033175;28;20025;-66
2022/02/21 04:01:05;;;;;;;3.50;0.75;;;;;;;6.34;100.00;93991.53;5033329;28;20021;-67
2022/02/21 04:03:30;;;;;;;1.55;0.90;;;;;;;6.33;100.00;93996.06;5033228;28;20025;-67
2022/02/21 04:05:55;;;;;;;1.08;0.50;;;;;;;6.26;100.00;93998.16;5033019;28;20074;-66
2022/02/21 04:08:20;;;;;;;4.05;0.95;;;;;;;6.27;100.00;93990.97;5033226;28;20075;-66
2022/02/21 04:10:46;;;;;;;2.28;0.93;;;;;;;6.28;100.00;93988.06;5032085;28;20025;-66
2022/02/21 04:13:11;;;;;;;2.53;0.63;;;;;;;6.29;100.00;93992.31;5033067;28;20461;-66
2022/02/21 04:15:37;;;;;;;3.83;0.80;;;;;;;6.35;100.00;94001.91;5031616;28;20103;-66
2022/02/21 04:18:08;;;;;;;4.05;0.90;;;;;;;6.35;100.00;94001.91;5033006;28;20029;-66
2022/02/21 04:20:33;;;;;;;1.20;0.75;;;;;;;6.36;100.00;93997.38;5052570;28;20155;-66
2022/02/21 04:23:02;;;;;;;1.70;0.68;;;;;;;6.39;100.00;93996.84;5039993;28;20112;-66
2022/02/21 04:25:40;;;;;;;2.83;1.58;;;;;;;6.44;100.00;93988.88;5039337;28;20027;-66
2022/02/21 04:28:08;;;;;;;2.55;0.70;;;;;;;6.46;100.00;93981.44;5037931;28;20052;-66
2022/02/21 04:30:37;;;;;;;4.55;0.93;;;;;;;6.47;100.00;93959.09;5032792;28;20024;-66
2022/02/21 04:33:06;;;;;;;2.45;0.80;;;;;;;6.56;100.00;93935.41;5032724;28;20028;-66
2022/02/21 04:35:37;;;;;;;2.88;0.60;;;;;;;6.65;100.00;93926.63;5032512;28;20021;-67
2022/02/21 04:38:08;;;;;;;1.40;0.90;;;;;;;6.73;100.00;93924.47;5051161;23;20508;-71
2022/02/21 04:40:33;;;;;;;1.90;0.70;;;;;;;6.80;100.00;93907.16;5031336;28;20079;-70
2022/02/21 04:43:04;;;;;;;1.55;0.70;;;;;;;6.84;100.00;93896.78;5019813;28;20057;-71
2022/02/21 04:45:30;;;;;;;2.38;0.88;;;;;;;6.76;100.00;93895.47;5032405;28;20056;-70
2022/02/21 04:48:07;;;;;;;1.35;0.60;;;;;;;6.61;100.00;93875.00;5030718;28;20087;-70
2022/02/21 04:50:36;;;;;;;0.57;0.47;;;;;;;6.49;100.00;93887.00;5032471;28;20498;-69
2022/02/21 04:53:06;;;;;;;5.22;0.80;;;;;;;6.42;100.00;93886.47;5032391;28;20033;-69
2022/02/21 04:55:32;;;;;;;1.48;0.50;;;;;;;6.47;100.00;93878.47;5031105;28;20023;-70
2022/02/21 04:57:57;;;;;;;1.65;0.50;;;;;;;6.42;100.00;93878.50;5032393;28;20100;-69
2022/02/21 05:00:22;;;;;;;1.48;0.50;;;;;;;6.45;100.00;93886.75;5032425;28;20105;-70
2022/02/21 05:02:50;;;;;;;1.85;0.52;;;;;;;6.42;100.00;93863.34;5031050;28;20072;-70
2022/02/21 05:05:18;;;;;;;0.82;0.43;;;;;;;6.47;100.00;93871.31;5031028;28;20031;-70
2022/02/21 05:07:50;;;;;;;1.25;0.70;;;;;;;6.54;100.00;93871.03;5032399;28;20037;-70
2022/02/21 05:10:15;;;;;;;1.92;0.90;;;;;;;6.65;100.00;93865.41;5032427;28;20026;-71
2022/02/21 05:12:46;;;;;;;3.13;0.40;;;;;;;6.74;100.00;93880.84;5032215;28;20030;-70
2022/02/21 05:15:15;;;;;;;1.17;0.57;;;;;;;6.78;100.00;93850.75;5031009;28;20453;-70
2022/02/21 05:17:41;;;;;;;1.88;0.50;;;;;;;6.71;100.00;93854.75;5032042;28;20112;-70
2022/02/21 05:20:10;;;;;;;1.85;0.40;;;;;;;6.57;100.00;93850.00;5032200;28;20029;-70
2022/02/21 05:22:38;;;;;;;0.75;0.30;;;;;;;6.49;100.00;93869.16;5032150;28;20022;-69
2022/02/21 05:25:08;;;;;;;0.68;0.52;;;;;;;6.39;100.00;93858.53;5030582;28;20033;-69
2022/02/21 05:27:38;;;;;;;0.70;0.40;;;;;;;6.24;100.00;93875.31;5030762;28;20036;-69
2022/02/21 05:30:05;;;;;;;1.65;0.50;;;;;;;6.14;100.00;93875.31;5032116;28;20055;-70
2022/02/21 05:32:34;;;;;;;3.08;0.38;;;;;;;6.01;100.00;93889.16;5030912;28;20041;-69
2022/02/21 05:35:02;;;;;;;1.60;0.40;;;;;;;5.95;100.00;93924.75;5032044;28;20029;-68
2022/02/21 05:37:30;;;;;;;0.70;0.50;;;;;;;5.88;100.00;93937.47;5031649;28;20129;-69
2022/02/21 05:40:04;;;;;;;0.60;0.30;;;;;;;5.74;100.00;93972.50;5031968;28;20029;-69
2022/02/21 05:42:33;;;;;;;1.95;0.40;;;;;;;5.63;100.00;93988.69;5031807;28;20387;-69
2022/02/21 05:45:01;;;;;;;0.47;0.32;;;;;;;5.54;100.00;94014.97;5031795;28;20029;-69
2022/02/21 05:47:29;;;;;;;0.98;0.40;;;;;;;5.49;100.00;94079.47;5032018;28;20053;-67
2022/02/21 05:49:55;;;;;;;0.77;0.43;;;;;;;5.34;100.00;94094.53;5031873;28;20029;-69
2022/02/21 05:52:20;;;;;;;0.85;0.40;;;;;;;5.11;100.00;94125.69;5030589;28;20052;-69
2022/02/21 05:54:53;;;;;;;2.33;0.40;;;;;;;4.88;100.00;94160.50;5031943;28;20025;-68
2022/02/21 05:57:29;;;;;;;0.95;0.50;;;;;;;4.68;100.00;94200.13;5031638;28;20040;-69
2022/02/21 05:59:56;;;;;;;0.35;0.32;;;;;;;4.40;100.00;94209.88;5033823;28;20108;-69
2022/02/21 06:02:21;;;;;;;0.35;0.30;;;;;;;4.21;100.00;94246.50;5035395;28;20029;-68
2022/02/21 06:04:49;;;;;;;0.45;0.25;;;;;;;4.14;100.00;94306.84;5035465;28;20025;-68
2022/02/21 06:07:20;;;;;;;1.00;0.20;;;;;;;3.85;100.00;94342.44;5034075;28;20160;-69
2022/02/21 06:09:48;;;;;;;0.20;0.20;;;;;;;3.40;100.00;94351.22;5034002;28;20446;-70
2022/02/21 06:12:13;;;;;;;0.30;0.20;;;;;;;3.16;100.00;94385.72;5035180;28;20033;-69
2022/02/21 06:14:39;;;;;;;3.40;0.30;;;;;;;2.94;100.00;94405.13;5035473;28;20025;-69
2022/02/21 06:17:07;;;;;;;0.35;0.28;;;;;;;2.73;100.00;94406.56;5033848;28;20018;-69
2022/02/21 06:19:33;;;;;;;0.45;0.30;;;;;;;2.51;100.00;94430.94;5035567;28;20087;-69
2022/02/21 06:21:58;;;;;;;0.30;0.28;;;;;;;2.35;100.00;94436.09;5029620;28;20045;-69
2022/02/21 06:24:26;;;;;;;0.30;0.20;;;;;;;2.29;100.00;94474.81;5034252;28;20040;-69
2022/02/21 06:26:54;;;;;;;2.63;0.30;;;;;;;2.17;100.00;94489.84;5032232;28;20023;-69
2022/02/21 06:29:22;;;;;;;0.25;0.22;;;;;;;1.95;100.00;94511.50;5029501;28;20303;-68
2022/02/21 06:31:47;;;;;;;0.70;0.30;;;;;;;1.76;100.00;94501.22;5031277;28;20017;-69
2022/02/21 06:34:15;;;;;;;3.10;0.50;;;;;;;1.63;100.00;94510.13;5035208;28;20090;-68
2022/02/21 06:36:41;;;;;;;2.85;0.65;;;;;;;1.54;100.00;94543.13;5035199;28;20496;-69
2022/02/21 06:39:09;;;;;;;0.65;0.40;;;;;;;1.40;100.00;94538.00;5035167;28;20080;-68
2022/02/21 06:41:34;;;;;;;2.05;0.40;;;;;;;1.36;100.00;94555.31;5047816;28;20025;-68
2022/02/21 06:44:02;;;;;;;0.73;0.30;;;;;;;1.31;100.00;94551.72;5034443;28;20365;-69
2022/02/21 06:46:27;;;;;;;2.42;0.70;;;;;;;1.28;100.00;94574.06;5034425;28;20049;-68
2022/02/21 06:48:53;;;;;;;1.55;0.20;;;;;;;1.29;100.00;94588.06;5033366;28;20071;-68
2022/02/21 06:51:25;;;;;;;0.95;0.40;;;;;;;1.24;100.00;94594.00;5033051;28;20439;-68
2022/02/21 06:53:53;;;;;;;0.57;0.40;;;;;;;1.16;100.00;94587.19;5033737;28;20036;-68
2022/02/21 06:56:21;;;;;;;3.72;0.70;;;;;;;1.17;100.00;94603.81;5034412;28;20018;-69
2022/02/21 06:58:46;;;;;;;0.68;0.40;;;;;;;1.19;100.00;94585.94;5033171;28;20028;-69
2022/02/21 07:01:12;;;;;;;1.65;0.43;;;;;;;1.23;100.00;94586.31;5042337;28;20392;-69
2022/02/21 07:03:37;;;;;;;0.47;0.38;;;;;;;1.22;100.00;94577.59;5034351;28;20030;-68
2022/02/21 07:06:02;;;;;;;0.82;0.40;;;;;;;1.21;100.00;94568.06;5034052;28;20018;-68
2022/02/21 07:08:35;;;;;;;0.93;0.43;;;;;;;1.27;100.00;94583.00;5033012;28;20040;-69
2022/02/21 07:11:03;;;;;;;1.85;0.50;;;;;;;1.29;100.00;94582.78;5039086;28;20059;-69
2022/02/21 07:13:29;;;;;;;2.72;0.60;;;;;;;1.29;100.00;94570.41;5034135;28;20136;-69
2022/02/21 07:15:55;;;;;;;2.80;0.43;;;;;;;1.28;100.00;94560.88;5032790;28;20099;-69
2022/02/21 07:18:20;;;;;;;3.40;0.43;;;;;;;1.37;100.00;94600.97;5032730;28;20099;-69
2022/02/21 07:20:46;;;;;;;2.97;0.45;;;;;;;1.37;100.00;94630.00;5037313;28;20472;-69
2022/02/21 07:23:12;;;;;;;1.38;0.45;;;;;;;1.38;100.00;94653.53;5033754;28;20022;-66
2022/02/21 07:25:37;;;;;;;1.35;0.40;;;;;;;1.37;100.00;94675.66;5031157;28;20068;-69
2022/02/21 07:28:03;;;;;;;2.65;0.68;;;;;;;1.38;100.00;94692.28;5026359;28;20412;-68
2022/02/21 07:30:30;;;;;;;2.88;0.82;;;;;;;1.41;100.00;94690.06;5026875;28;20059;-69
2022/02/21 07:33:03;;;;;;;3.50;0.52;;;;;;;1.46;100.00;94684.09;5032193;28;20029;-69
2022/02/21 07:35:28;;;;;;;3.10;0.75;;;;;;;1.47;100.00;94677.81;5033891;28;20354;-69
2022/02/21 07:37:56;;;;;;;3.72;1.00;;;;;;;1.51;100.00;94715.13;5033374;28;20120;-69
2022/02/21 07:40:21;;;;;;;2.17;0.73;;;;;;;1.56;100.00;94744.31;5033538;28;20034;-70
2022/02/21 07:42:53;;;;;;;3.80;0.65;;;;;;;1.55;100.00;94745.34;5033692;28;20033;-70
2022/02/21 07:45:27;;;;;;;4.38;1.15;;;;;;;1.57;100.00;94738.81;5033466;28;20091;-69
2022/02/21 07:47:58;;;;;;;4.60;0.57;;;;;;;1.60;100.00;94735.72;5032314;28;20500;-69
2022/02/21 07:50:25;;;;;;;4.05;0.70;;;;;;;1.68;100.00;94737.28;5032144;28;20112;-70
2022/02/21 07:53:10;;;;;;;3.58;0.70;;;;;;;1.74;100.00;94731.97;5033423;28;20036;-69
2022/02/21 07:55:36;;;;;;;3.40;0.75;;;;;;;1.78;100.00;94737.59;5032082;28;20519;-70
2022/02/21 07:58:02;;;;;;;6.00;0.82;;;;;;;1.80;100.00;94737.38;5031861;28;20029;-70
2022/02/21 08:00:31;;;;;;;4.57;0.93;;;;;;;1.83;100.00;94724.53;5032048;28;20388;-70
2022/02/21 08:03:04;;;;;;;5.05;1.63;;;;;;;1.84;100.00;94733.25;5033096;28;20486;-70
2022/02/21 08:05:39;;;;;;;5.00;1.10;;;;;;;1.91;100.00;94728.72;5031839;28;20021;-70
2022/02/21 08:08:08;;;;;;;3.13;0.88;;;;;;;1.96;100.00;94715.69;5033014;28;20361;-70
2022/02/21 08:10:39;;;;;;;6.93;1.08;;;;;;;2.04;100.00;94713.53;5033068;28;20039;-70
2022/02/21 08:13:05;;;;;;;4.30;0.90;;;;;;;2.10;100.00;94724.25;5031679;28;20021;-70
2022/02/21 08:15:31;;;;;;;2.65;1.02;;;;;;;2.13;100.00;94715.88;5031711;28;20021;-70
2022/02/21 08:18:05;;;;;;;3.65;1.10;;;;;;;2.20;100.00;94722.72;5032825;28;20071;-70
2022/02/21 08:20:30;;;;;;;8.13;1.23;;;;;;;2.29;100.00;94728.50;5032976;28;20033;-70
2022/02/21 08:22:57;;;;;;;4.38;1.25;;;;;;;2.36;100.00;94736.34;5031894;28;20037;-70
2022/02/21 08:25:22;;;;;;;3.03;0.85;;;;;;;2.42;100.00;94733.63;5032859;28;20383;-71
2022/02/21 08:27:51;;;;;;;8.90;1.23;;;;;;;2.44;100.00;94739.50;5032678;28;20040;-70
2022/02/21 08:30:20;;;;;;;4.53;1.60;;;;;;;2.49;100.00;94728.25;5031467;28;20028;-70
2022/02/21 08:32:49;;;;;;;5.22;1.30;;;;;;;2.50;100.00;94717.47;5032858;28;20031;-69
2022/02/21 08:35:16;;;;;;;7.68;1.17;;;;;;;2.54;100.00;94720.47;5031330;28;20106;-69
2022/02/21 08:37:41;;;;;;;6.97;2.05;;;;;;;2.61;100.00;94705.31;5032357;28;20052;-70
2022/02/21 08:40:10;;;;;;;5.10;1.52;;;;;;;2.71;100.00;94702.91;5032590;28;20037;-70
2022/02/21 08:42:37;;;;;;;4.47;1.65;;;;;;;2.80;100.00;94695.47;5032734;28;20092;-69
2022/02/21 08:45:07;;;;;;;9.38;1.65;;;;;;;2.86;100.00;94695.38;5032302;28;20029;-70
2022/02/21 08:47:35;;;;;;;9.40;2.10;;;;;;;2.90;100.00;94669.28;5029686;28;20035;-70
2022/02/21 08:50:00;;;;;;;8.10;1.67;;;;;;;2.93;100.00;94668.84;5031215;28;20699;-69
2022/02/21 08:52:28;;;;;;;10.45;2.03;;;;;;;2.91;100.00;94653.19;5027885;28;20045;-69
2022/02/21 08:54:53;;;;;;;4.50;1.40;;;;;;;2.88;100.00;94642.25;5030390;28;20031;-69
2022/02/21 08:57:19;;;;;;;6.32;1.60;;;;;;;2.90;100.00;94626.97;5029883;28;20520;-66
2022/02/21 08:59:44;;;;;;;7.32;1.48;;;;;;;2.96;100.00;94617.31;5029748;28;20384;-68
2022/02/21 09:02:10;;;;;;;7.32;1.50;;;;;;;3.00;100.00;94602.59;5029444;28;20132;-68
2022/02/21 09:04:39;;;;;;;9.20;1.67;;;;;;;3.04;100.00;94582.56;5031531;28;20029;-70
2022/02/21 09:07:04;;;;;;;3.25;1.00;;;;;;;3.05;100.00;94563.84;5032147;28;20021;-69
2022/02/21 09:09:29;;;;;;;10.95;1.90;;;;;;;3.07;100.00;94542.44;5029824;28;20033;-69
2022/02/21 09:11:55;;;;;;;5.68;1.42;;;;;;;3.15;100.00;94526.22;5027303;28;20093;-70
2022/02/21 09:14:23;;;;;;;5.55;1.30;;;;;;;3.24;100.00;94514.22;5033598;28;20040;-70
2022/02/21 09:16:48;;;;;;;3.63;1.13;;;;;;;3.26;100.00;94498.94;5031551;28;20026;-69
2022/02/21 09:19:14;;;;;;;7.57;1.30;;;;;;;3.32;100.00;94482.09;5028718;28;20462;-69
2022/02/21 09:21:39;;;;;;;7.10;1.52;;;;;;;3.39;100.00;94463.44;5028085;28;20025;-69
2022/02/21 09:24:05;;;;;;;7.78;1.10;;;;;;;3.43;100.00;94448.69;5028144;28;20414;-69
2022/02/21 09:26:34;;;;;;;6.50;1.45;;;;;;;3.51;100.00;94439.56;5028620;28;20025;-68
2022/02/21 09:29:11;;;;;;;7.68;1.30;;;;;;;3.59;100.00;94408.22;5029118;28;20071;-69
2022/02/21 09:31:39;;;;;;;6.63;1.52;;;;;;;3.64;100.00;94399.56;5029254;28;20021;-69
2022/02/21 09:34:06;;;;;;;10.48;1.40;;;;;;;3.56;100.00;94384.06;5029626;28;20108;-69
2022/02/21 09:36:31;;;;;;;6.60;1.33;;;;;;;3.56;100.00;94376.09;5033094;28;20295;-69
2022/02/21 09:38:59;;;;;;;4.05;1.27;;;;;;;3.63;100.00;94364.34;5033252;28;20099;-69
2022/02/21 09:41:26;;;;;;;4.32;0.93;;;;;;;3.96;100.00;94352.16;5034222;28;20028;-68
2022/02/21 09:43:52;;;;;;;4.60;1.17;;;;;;;4.51;100.00;94338.09;5032645;28;20041;-69
2022/02/21 09:46:17;;;;;;;4.35;0.90;;;;;;;5.10;100.00;94360.34;5032460;28;20574;-69
2022/02/21 09:48:45;;;;;;;4.13;1.15;;;;;;;5.37;100.00;94357.69;5034384;28;20080;-68
2022/02/21 09:51:10;;;;;;;2.42;0.70;;;;;;;5.66;100.00;94355.59;5035131;28;20032;-69
2022/02/21 09:53:38;;;;;;;2.80;1.10;;;;;;;5.46;100.00;94368.69;5042301;28;20025;-69
2022/02/21 09:56:05;;;;;;;3.13;1.23;;;;;;;5.44;100.00;94376.91;5035479;28;20075;-69
2022/02/21 09:58:31;;;;;;;4.43;0.70;;;;;;;5.28;100.00;94390.25;5034339;28;20059;-69
2022/02/21 10:01:01;;;;;;;8.00;1.27;;;;;;;5.13;100.00;94407.63;5032463;28;20037;-68
2022/02/21 10:03:45;;;;;;;5.63;1.02;;;;;;;4.97;100.00;94424.38;5040106;28;20049;-68
2022/02/21 10:06:25;;;;;;;5.00;1.05;;;;;;;4.83;100.00;94423.94;5032987;28;20029;-69
2022/02/21 10:09:10;;;;;;;10.45;1.27;;;;;;;4.74;100.00;94420.09;5032897;28;20025;-69
2022/02/21 10:11:46;;;;;;;3.90;1.10;;;;;;;4.74;100.00;94420.09;5032382;28;20104;-67
2022/02/21 10:14:22;;;;;;;4.18;1.35;;;;;;;4.64;100.00;94430.56;5034340;28;20036;-69
2022/02/21 10:17:01;;;;;;;5.72;1.38;;;;;;;4.62;100.00;94437.97;5032327;28;20448;-68
2022/02/21 10:19:30;;;;;;;5.93;1.25;;;;;;;4.54;100.00;94435.72;5031197;28;20021;-68
2022/02/21 10:22:22;;;;;;;4.55;1.00;;;;;;;4.48;100.00;94431.41;5031126;28;20025;-69
2022/02/21 10:24:42;;;;;;;2.75;1.10;;;;;;;4.36;100.00;94447.41;5030997;28;20029;-68
2022/02/21 10:27:12;;;;;;;5.38;0.90;;;;;;;4.33;100.00;94448.66;5023996;28;20040;-75
2022/02/21 10:30:00;;;;;;;6.32;1.05;;;;;;;4.31;100.00;94452.59;4973743;28;20128;-69
2022/02/21 10:32:30;;;;;;;5.97;1.65;;;;;;;4.34;100.00;94454.75;5010369;28;20187;-69
2022/02/21 10:35:10;;;;;;;4.82;1.23;;;;;;;4.41;100.00;94457.28;5011484;28;20037;-69
2022/02/21 10:37:45;;;;;;;3.53;1.00;;;;;;;4.47;100.00;94451.00;5032871;22;20049;-64
2022/02/21 10:40:38;;;;;;;5.13;1.50;;;;;;;4.44;100.00;94452.28;5051962;28;20020;-64
2022/02/21 10:43:14;;;;;;;4.50;0.90;;;;;;;4.38;100.00;94458.56;5046058;28;20108;-64
2022/02/21 10:45:40;;;;;;;5.40;1.10;;;;;;;4.44;100.00;94464.72;5037966;28;20435;-65
2022/02/21 10:48:07;;;;;;;5.97;1.33;;;;;;;4.46;100.00;94449.41;5042676;28;20511;-65
2022/02/21 10:50:35;;;;;;;5.70;1.40;;;;;;;4.53;100.00;94452.69;5042708;28;20496;-65
2022/02/21 10:53:08;;;;;;;9.23;1.33;;;;;;;4.71;100.00;94448.97;5038897;28;20029;-64
2022/02/21 10:55:35;;;;;;;9.13;2.15;;;;;;;4.82;100.00;94446.22;5040839;28;20017;-65
2022/02/21 10:58:22;;;;;;;7.47;1.52;;;;;;;4.87;100.00;94448.13;5034378;28;20541;-65
2022/02/21 11:00:56;;;;;;;7.43;1.10;;;;;;;4.82;100.00;94432.16;5049948;28;20029;-67
2022/02/21 11:03:27;;;;;;;6.97;1.50;;;;;;;4.91;100.00;94447.41;5034539;28;20059;-65
2022/02/21 11:06:05;;;;;;;4.45;1.20;;;;;;;4.87;100.00;94433.00;5050054;28;20025;-65
2022/02/21 11:08:31;;;;;;;6.88;1.42;;;;;;;4.87;100.00;94442.81;5050181;28;20369;-64
2022/02/21 11:11:09;;;;;;;9.63;1.27;;;;;;;4.86;100.00;94457.13;5042446;28;20403;-64
2022/02/21 11:13:36;;;;;;;5.88;1.33;;;;;;;4.69;100.00;94456.38;5035102;28;20036;-64
2022/02/21 11:16:03;;;;;;;5.38;1.17;;;;;;;4.52;100.00;94459.03;5034269;28;20032;-64
2022/02/21 11:18:35;;;;;;;8.02;1.75;;;;;;;4.45;100.00;94456.56;5033854;28;20030;-66
2022/02/21 11:21:03;;;;;;;6.05;1.20;;;;;;;4.34;100.00;94455.59;5034177;28;20101;-64
2022/02/21 11:23:31;;;;;;;8.45;1.23;;;;;;;4.39;100.00;94468.13;5041836;28;20092;-64
2022/02/21 11:26:13;;;;;;;6.28;1.15;;;;;;;4.36;100.00;94444.75;5033390;28;20021;-64
2022/02/21 11:28:48;;;;;;;5.78;1.13;;;;;;;4.30;100.00;94473.00;5034143;28;20396;-65
2022/02/21 11:31:24;;;;;;;6.93;1.02;;;;;;;4.44;100.00;94465.53;5034045;28;20028;-65
2022/02/21 11:33:57;;;;;;;7.05;1.27;;;;;;;5.06;100.00;94465.38;5049225;28;20514;-64
2022/02/21 11:36:23;;;;;;;7.38;1.10;;;;;;;5.62;100.00;94452.78;5034084;28;20115;-64
2022/02/21 11:38:53;;;;;;;8.63;1.55;;;;;;;6.11;100.00;94439.47;5032178;28;20041;-64